createdAt,value
2023-05-10T00:01:53.883Z,8.20
2023-05-10T00:04:22.640Z,8.18
2023-05-10T00:06:51.380Z,8.16
2023-05-10T00:09:20.026Z,8.16
2023-05-10T00:11:48.710Z,8.14
2023-05-10T00:14:17.344Z,8.13
2023-05-10T00:16:46.649Z,8.11
2023-05-10T00:19:15.337Z,8.09
2023-05-10T00:21:44.549Z,8.07
2023-05-10T00:24:13.199Z,8.06
2023-05-10T00:26:42.619Z,8.05
2023-05-10T00:29:11.625Z,8.04
2023-05-10T00:31:40.257Z,8.01
2023-05-10T00:34:08.876Z,7.99
2023-05-10T00:36:37.728Z,7.96
2023-05-10T00:39:06.835Z,7.93
2023-05-10T00:41:35.298Z,7.90
2023-05-10T00:44:04.625Z,7.86
2023-05-10T00:46:33.645Z,7.84
2023-05-10T00:49:02.861Z,7.83
2023-05-10T00:51:32.130Z,7.81
2023-05-10T00:54:01.474Z,7.77
2023-05-10T00:56:30.297Z,7.73
2023-05-10T00:58:59.089Z,7.70
2023-05-10T01:01:28.265Z,7.66
2023-05-10T01:03:57.373Z,7.61
2023-05-10T01:06:26.080Z,7.57
2023-05-10T01:08:54.894Z,7.53
2023-05-10T01:11:23.502Z,7.50
2023-05-10T01:13:56.323Z,7.46
2023-05-10T01:16:25.699Z,7.42
2023-05-10T01:18:54.809Z,7.37
2023-05-10T01:21:33.893Z,7.33
2023-05-10T01:24:22.103Z,7.29
2023-05-10T01:27:18.281Z,7.25
2023-05-10T01:30:17.924Z,7.21
2023-05-10T01:32:55.329Z,7.19
2023-05-10T01:35:32.992Z,7.18
2023-05-10T01:38:12.431Z,7.18
2023-05-10T01:40:49.218Z,7.17
2023-05-10T01:43:22.513Z,7.16
2023-05-10T01:46:00.658Z,7.16
2023-05-10T01:48:30.853Z,7.15
2023-05-10T01:50:59.904Z,7.12
2023-05-10T01:53:30.019Z,7.10
2023-05-10T01:56:01.081Z,7.09
2023-05-10T01:58:33.518Z,7.07
2023-05-10T02:01:05.914Z,7.05
2023-05-10T02:03:36.592Z,7.04
2023-05-10T02:06:07.937Z,7.02
2023-05-10T02:08:37.829Z,7.01
2023-05-10T02:11:07.834Z,6.99
2023-05-10T02:13:39.805Z,6.97
2023-05-10T02:16:08.491Z,6.95
2023-05-10T02:18:37.944Z,6.92
2023-05-10T02:21:06.890Z,6.90
2023-05-10T02:23:37.196Z,6.88
2023-05-10T02:26:07.131Z,6.86
2023-05-10T02:28:38.082Z,6.83
2023-05-10T02:31:09.515Z,6.82
2023-05-10T02:33:39.572Z,6.81
2023-05-10T02:36:10.661Z,6.80
2023-05-10T02:38:39.651Z,6.80
2023-05-10T02:41:11.206Z,6.80
2023-05-10T02:43:42.783Z,6.79
2023-05-10T02:46:11.545Z,6.78
2023-05-10T02:48:40.387Z,6.79
2023-05-10T02:51:12.035Z,6.77
2023-05-10T02:53:44.667Z,6.76
2023-05-10T02:56:16.112Z,6.73
2023-05-10T02:58:44.754Z,6.70
2023-05-10T03:01:13.357Z,6.69
2023-05-10T03:03:42.222Z,6.70
2023-05-10T03:06:10.736Z,6.71
2023-05-10T03:08:39.605Z,6.73
2023-05-10T03:11:25.487Z,6.73
2023-05-10T03:14:04.571Z,6.76
2023-05-10T03:16:47.607Z,6.78
2023-05-10T03:19:23.480Z,6.80
2023-05-10T03:21:54.427Z,6.85
2023-05-10T03:24:28.139Z,6.93
2023-05-10T03:26:59.717Z,7.06
2023-05-10T03:29:29.160Z,7.25
2023-05-10T03:31:59.870Z,7.46
2023-05-10T03:34:30.692Z,7.70
2023-05-10T03:36:59.641Z,7.95
2023-05-10T03:39:29.181Z,8.21
2023-05-10T03:42:00.048Z,8.53
2023-05-10T03:44:28.851Z,8.86
2023-05-10T03:46:58.227Z,9.20
2023-05-10T03:49:26.998Z,9.50
2023-05-10T03:51:55.756Z,9.85
2023-05-10T03:54:24.434Z,10.19
2023-05-10T03:56:53.086Z,10.52
2023-05-10T03:59:22.083Z,10.86
2023-05-10T04:01:50.741Z,11.18
2023-05-10T04:04:21.072Z,11.44
2023-05-10T04:06:51.315Z,11.73
2023-05-10T04:09:19.984Z,12.03
2023-05-10T04:11:48.691Z,12.32
2023-05-10T04:14:17.289Z,12.62
2023-05-10T04:16:45.947Z,12.97
2023-05-10T04:19:14.486Z,13.31
2023-05-10T04:21:43.039Z,13.68
2023-05-10T04:24:12.704Z,14.04
2023-05-10T04:26:42.138Z,14.43
2023-05-10T04:29:10.693Z,14.76
2023-05-10T04:31:39.292Z,15.04
2023-05-10T04:34:07.989Z,15.24
2023-05-10T04:36:37.005Z,15.54
2023-05-10T04:39:05.494Z,15.81
2023-05-10T04:41:34.140Z,16.05
2023-05-10T04:44:02.780Z,16.25
2023-05-10T04:46:31.387Z,16.28
2023-05-10T04:49:00.056Z,16.41
2023-05-10T04:51:28.885Z,16.57
2023-05-10T04:54:05.856Z,16.70
2023-05-10T04:56:35.172Z,16.96
2023-05-10T04:59:03.909Z,17.13
2023-05-10T05:01:32.733Z,17.22
2023-05-10T05:04:01.827Z,17.30
2023-05-10T05:06:30.417Z,17.49
2023-05-10T05:08:58.911Z,17.74
2023-05-10T05:11:27.504Z,17.71
2023-05-10T05:13:56.147Z,17.76
2023-05-10T05:16:24.977Z,17.95
2023-05-10T05:18:53.721Z,18.33
2023-05-10T05:21:22.718Z,18.73
2023-05-10T05:23:51.317Z,19.06
2023-05-10T05:26:25.334Z,19.29
2023-05-10T05:28:54.978Z,19.55
2023-05-10T05:31:23.708Z,19.75
2023-05-10T05:33:53.751Z,19.97
2023-05-10T05:36:22.527Z,20.19
2023-05-10T05:38:51.269Z,20.36
2023-05-10T05:41:20.388Z,20.51
2023-05-10T05:43:49.086Z,20.73
2023-05-10T05:46:17.771Z,20.88
2023-05-10T05:48:46.458Z,21.13
2023-05-10T05:51:15.099Z,21.44
2023-05-10T05:53:43.670Z,21.62
2023-05-10T05:56:12.271Z,21.80
2023-05-10T05:58:40.983Z,21.92
2023-05-10T06:01:09.818Z,22.05
2023-05-10T06:03:38.711Z,22.22
2023-05-10T06:06:07.628Z,22.39
2023-05-10T06:08:36.440Z,22.51
2023-05-10T06:11:05.209Z,22.60
2023-05-10T06:13:35.619Z,22.71
2023-05-10T06:16:05.136Z,22.74
2023-05-10T06:18:33.823Z,22.71
2023-05-10T06:21:02.594Z,22.82
2023-05-10T06:23:31.241Z,22.92
2023-05-10T06:25:59.764Z,22.99
2023-05-10T06:28:28.321Z,23.00
2023-05-10T06:30:56.780Z,23.07
2023-05-10T06:33:25.431Z,23.20
2023-05-10T06:35:53.929Z,23.30
2023-05-10T06:38:25.421Z,23.29
2023-05-10T06:40:55.700Z,23.23
2023-05-10T06:43:25.271Z,23.08
2023-05-10T06:45:56.873Z,23.08
2023-05-10T06:48:24.748Z,23.01
2023-05-10T06:50:53.454Z,22.71
2023-05-10T06:53:22.352Z,22.55
2023-05-10T06:55:51.593Z,22.55
2023-05-10T06:58:20.198Z,22.52
2023-05-10T07:00:51.928Z,22.44
2023-05-10T07:03:20.878Z,22.36
2023-05-10T07:05:49.528Z,22.17
2023-05-10T07:08:18.553Z,22.12
2023-05-10T07:10:47.196Z,21.91
2023-05-10T07:13:15.817Z,21.79
2023-05-10T07:15:44.965Z,21.64
2023-05-10T07:18:13.628Z,21.54
2023-05-10T07:20:42.289Z,21.64
2023-05-10T07:23:12.017Z,21.70
2023-05-10T07:25:40.668Z,21.71
2023-05-10T07:28:09.313Z,21.88
2023-05-10T07:30:37.905Z,22.03
2023-05-10T07:33:06.751Z,22.05
2023-05-10T07:35:35.429Z,22.16
2023-05-10T07:38:04.562Z,22.41
2023-05-10T07:40:33.710Z,22.51
2023-05-10T07:43:02.581Z,22.52
2023-05-10T07:45:31.371Z,22.57
2023-05-10T07:47:59.962Z,22.70
2023-05-10T07:50:28.662Z,22.92
2023-05-10T07:52:57.428Z,23.05
2023-05-10T07:55:26.542Z,23.08
2023-05-10T07:57:55.233Z,23.05
2023-05-10T08:00:23.768Z,23.14
2023-05-10T08:02:53.373Z,23.21
2023-05-10T08:05:22.679Z,23.26
2023-05-10T08:07:51.625Z,23.42
2023-05-10T08:10:20.331Z,23.55
2023-05-10T08:12:48.960Z,23.59
2023-05-10T08:15:17.850Z,23.63
2023-05-10T08:17:46.632Z,23.57
2023-05-10T08:20:17.138Z,23.40
2023-05-10T08:22:46.459Z,23.24
2023-05-10T08:25:15.981Z,23.14
2023-05-10T08:27:44.690Z,23.05
2023-05-10T08:30:14.236Z,23.08
2023-05-10T08:32:42.872Z,23.21
2023-05-10T08:35:11.506Z,23.33
2023-05-10T08:37:40.139Z,23.52
2023-05-10T08:40:12.186Z,23.50
2023-05-10T08:42:49.058Z,23.19
2023-05-10T08:45:20.146Z,23.29
2023-05-10T08:47:50.985Z,23.41
2023-05-10T08:50:22.687Z,23.40
2023-05-10T08:52:53.961Z,23.33
2023-05-10T08:55:24.368Z,23.26
2023-05-10T08:57:53.288Z,23.38
2023-05-10T09:00:23.836Z,23.49
2023-05-10T09:02:52.733Z,23.53
2023-05-10T09:05:21.389Z,23.57
2023-05-10T09:07:50.108Z,23.62
2023-05-10T09:10:19.610Z,23.56
2023-05-10T09:12:48.628Z,23.34
2023-05-10T09:15:19.837Z,23.20
2023-05-10T09:17:49.962Z,22.94
2023-05-10T09:20:18.693Z,23.14
2023-05-10T09:22:47.752Z,23.20
2023-05-10T09:25:17.816Z,23.12
2023-05-10T09:27:48.044Z,22.96
2023-05-10T09:30:23.979Z,22.66
2023-05-10T09:32:53.317Z,22.61
2023-05-10T09:35:25.970Z,22.80
2023-05-10T09:37:57.937Z,23.00
2023-05-10T09:40:28.566Z,23.19
2023-05-10T09:42:59.211Z,23.23
2023-05-10T09:45:29.704Z,23.31
2023-05-10T09:47:59.428Z,23.16
2023-05-10T09:50:28.674Z,22.92
2023-05-10T09:52:59.604Z,23.03
2023-05-10T09:55:40.551Z,23.25
2023-05-10T09:58:10.791Z,23.16
2023-05-10T10:00:41.200Z,22.91
2023-05-10T10:03:15.545Z,22.90
2023-05-10T10:05:45.086Z,22.83
2023-05-10T10:08:15.042Z,22.95
2023-05-10T10:10:46.563Z,23.12
2023-05-10T10:13:15.613Z,23.07
2023-05-10T10:15:44.792Z,22.67
2023-05-10T10:18:15.842Z,22.44
2023-05-10T10:20:44.412Z,22.45
2023-05-10T10:23:14.552Z,22.45
2023-05-10T10:25:48.154Z,22.57
2023-05-10T10:28:25.398Z,22.74
2023-05-10T10:31:02.243Z,22.81
2023-05-10T10:33:39.762Z,23.00
2023-05-10T10:36:08.751Z,22.74
2023-05-10T10:38:59.813Z,22.54
2023-05-10T10:41:33.633Z,22.27
2023-05-10T10:44:26.812Z,22.08
2023-05-10T10:47:23.419Z,21.89
2023-05-10T10:50:04.923Z,21.60
2023-05-10T10:52:34.958Z,21.49
2023-05-10T10:55:06.927Z,21.57
2023-05-10T10:57:45.551Z,21.58
2023-05-10T11:00:27.751Z,21.54
2023-05-10T11:02:59.846Z,21.45
2023-05-10T11:05:38.032Z,21.50
2023-05-10T11:08:12.280Z,21.49
2023-05-10T11:10:49.604Z,21.46
2023-05-10T11:13:27.860Z,21.49
2023-05-10T11:15:58.060Z,21.52
2023-05-10T11:18:31.018Z,21.44
2023-05-10T11:21:01.030Z,21.34
2023-05-10T11:23:34.197Z,21.30
2023-05-10T11:26:02.857Z,21.35
2023-05-10T11:28:32.060Z,21.35
2023-05-10T11:31:00.807Z,21.34
2023-05-10T11:33:29.600Z,21.30
2023-05-10T11:35:58.405Z,21.17
2023-05-10T11:38:27.008Z,21.06
2023-05-10T11:40:55.674Z,20.96
2023-05-10T11:43:30.969Z,20.91
2023-05-10T11:46:00.122Z,20.89
2023-05-10T11:48:30.718Z,20.85
2023-05-10T11:51:02.456Z,20.72
2023-05-10T11:53:32.244Z,20.62
2023-05-10T11:56:06.061Z,20.53
2023-05-10T11:58:35.826Z,20.53
2023-05-10T12:01:05.957Z,20.48
2023-05-10T12:03:35.109Z,20.40
2023-05-10T12:06:04.885Z,20.32
2023-05-10T12:08:33.570Z,20.27
2023-05-10T12:11:10.760Z,20.24
2023-05-10T12:13:41.353Z,20.20
2023-05-10T12:16:18.281Z,20.23
2023-05-10T12:18:49.178Z,20.29
2023-05-10T12:21:19.076Z,20.31
2023-05-10T12:23:50.421Z,20.30
2023-05-10T12:26:19.187Z,20.31
2023-05-10T12:28:47.982Z,20.34
2023-05-10T12:31:16.918Z,20.39
2023-05-10T12:33:46.858Z,20.39
2023-05-10T12:36:17.005Z,20.41
2023-05-10T12:38:48.227Z,20.45
2023-05-10T12:41:19.753Z,20.46
2023-05-10T12:43:48.512Z,20.53
2023-05-10T12:46:18.934Z,20.54
2023-05-10T12:49:00.173Z,20.50
2023-05-10T12:51:35.724Z,20.46
2023-05-10T12:54:05.360Z,20.47
2023-05-10T12:56:34.103Z,20.58
2023-05-10T12:59:02.754Z,20.68
2023-05-10T13:01:34.167Z,20.65
2023-05-10T13:04:02.947Z,20.65
2023-05-10T13:06:32.358Z,20.64
2023-05-10T13:09:01.013Z,20.65
2023-05-10T13:11:29.944Z,20.60
2023-05-10T13:13:58.987Z,20.51
2023-05-10T13:16:27.797Z,20.38
2023-05-10T13:18:56.988Z,20.25
2023-05-10T13:21:26.031Z,20.11
2023-05-10T13:23:55.231Z,20.01
2023-05-10T13:26:23.986Z,19.91
2023-05-10T13:28:52.875Z,19.86
2023-05-10T13:31:21.741Z,19.89
2023-05-10T13:33:50.479Z,19.94
2023-05-10T13:36:19.462Z,19.97
2023-05-10T13:38:48.418Z,20.03
2023-05-10T13:41:17.146Z,20.08
2023-05-10T13:43:45.913Z,20.14
2023-05-10T13:46:14.646Z,20.18
2023-05-10T13:48:43.328Z,20.20
2023-05-10T13:51:12.079Z,20.25
2023-05-10T13:53:45.142Z,20.30
2023-05-10T13:56:28.450Z,20.37
2023-05-10T13:59:18.952Z,20.51
2023-05-10T14:05:12.812Z,20.83
2023-05-10T14:08:25.613Z,20.87
2023-05-10T14:11:08.961Z,20.89
2023-05-10T14:14:15.779Z,20.94
2023-05-10T14:18:01.330Z,20.95
2023-05-10T14:21:02.530Z,20.88
2023-05-10T14:24:30.786Z,20.84
2023-05-10T14:27:17.925Z,20.80
2023-05-10T14:30:06.716Z,20.73
2023-05-10T14:33:15.722Z,20.70
2023-05-10T14:36:20.206Z,20.66
2023-05-10T14:39:05.132Z,20.68
2023-05-10T14:41:59.959Z,20.73
2023-05-10T14:44:51.766Z,20.73
2023-05-10T14:47:44.866Z,20.74
2023-05-10T14:50:44.761Z,20.77
2023-05-10T14:53:57.688Z,20.80
2023-05-10T14:56:56.984Z,20.81
2023-05-10T14:59:56.462Z,20.82
2023-05-10T15:02:47.390Z,20.83
2023-05-10T15:05:31.014Z,20.87
2023-05-10T15:08:00.214Z,20.90
2023-05-10T15:10:28.932Z,20.93
2023-05-10T15:13:00.468Z,20.95
2023-05-10T15:15:29.866Z,20.92
2023-05-10T15:17:58.726Z,20.89
2023-05-10T15:20:27.626Z,20.86
2023-05-10T15:22:56.320Z,20.86
2023-05-10T15:25:25.645Z,20.85
2023-05-10T15:27:54.330Z,20.84
2023-05-10T15:30:23.547Z,20.83
2023-05-10T15:32:52.222Z,20.79
2023-05-10T15:35:20.926Z,20.76
2023-05-10T15:37:50.058Z,20.73
2023-05-10T15:40:18.901Z,20.71
2023-05-10T15:42:47.677Z,20.71
2023-05-10T15:45:17.436Z,20.72
2023-05-10T15:47:46.684Z,20.73
2023-05-10T15:50:16.337Z,20.75
2023-05-10T15:52:46.272Z,20.76
2023-05-10T15:55:15.369Z,20.76
2023-05-10T15:57:45.770Z,20.78
2023-05-10T16:00:15.943Z,20.82
2023-05-10T16:02:44.801Z,20.84
2023-05-10T16:05:13.748Z,20.86
2023-05-10T16:07:42.753Z,20.84
2023-05-10T16:10:12.254Z,20.81
2023-05-10T16:12:41.247Z,20.77
2023-05-10T16:15:11.420Z,20.76
2023-05-10T16:17:40.931Z,20.74
2023-05-10T16:20:11.100Z,20.69
2023-05-10T16:22:39.950Z,20.60
2023-05-10T16:25:11.002Z,20.53
2023-05-10T16:27:42.667Z,20.46
2023-05-10T16:30:12.558Z,20.40
2023-05-10T16:32:41.688Z,20.33
2023-05-10T16:35:11.877Z,20.29
2023-05-10T16:37:41.472Z,20.29
2023-05-10T16:40:11.587Z,20.25
2023-05-10T16:42:40.359Z,20.20
2023-05-10T16:45:12.328Z,20.13
2023-05-10T16:47:42.570Z,20.08
2023-05-10T16:50:12.332Z,20.04
2023-05-10T16:52:41.206Z,19.99
2023-05-10T16:55:10.525Z,19.94
2023-05-10T16:57:39.338Z,19.88
2023-05-10T17:00:14.371Z,19.84
2023-05-10T17:02:44.337Z,19.80
2023-05-10T17:05:14.851Z,19.76
2023-05-10T17:07:43.806Z,19.73
2023-05-10T17:10:13.316Z,19.69
2023-05-10T17:12:43.257Z,19.67
2023-05-10T17:15:13.722Z,19.65
2023-05-10T17:17:43.447Z,19.61
2023-05-10T17:20:15.323Z,19.56
2023-05-10T17:22:44.133Z,19.52
2023-05-10T17:25:13.129Z,19.50
2023-05-10T17:27:42.978Z,19.47
2023-05-10T17:30:14.753Z,19.44
2023-05-10T17:32:44.124Z,19.41
2023-05-10T17:35:13.857Z,19.39
2023-05-10T17:37:43.617Z,19.35
2023-05-10T17:40:13.420Z,19.29
2023-05-10T17:42:42.258Z,19.24
2023-05-10T17:45:12.141Z,19.19
2023-05-10T17:47:41.012Z,19.12
2023-05-10T17:50:11.593Z,19.07
2023-05-10T17:52:40.630Z,19.00
2023-05-10T17:55:12.394Z,18.93
2023-05-10T17:57:42.693Z,18.82
2023-05-10T18:00:19.325Z,18.74
2023-05-10T18:02:48.261Z,18.64
2023-05-10T18:05:17.904Z,18.53
2023-05-10T18:07:52.396Z,18.44
2023-05-10T18:10:22.509Z,18.37
2023-05-10T18:13:16.443Z,18.28
2023-05-10T18:16:15.819Z,18.16
2023-05-10T18:19:16.605Z,17.97
2023-05-10T18:22:10.918Z,17.79
2023-05-10T18:25:40.238Z,17.68
2023-05-10T18:28:47.743Z,17.60
2023-05-10T18:31:47.225Z,17.48
2023-05-10T18:35:54.619Z,17.28
2023-05-10T18:38:39.498Z,17.13
2023-05-10T18:41:15.062Z,17.03
2023-05-10T18:43:49.240Z,16.93
2023-05-10T18:46:25.390Z,16.81
2023-05-10T18:49:07.669Z,16.67
2023-05-10T18:51:42.386Z,16.57
2023-05-10T18:54:16.149Z,16.46
2023-05-10T18:56:50.345Z,16.34
2023-05-10T18:59:24.175Z,16.21
2023-05-10T19:02:02.433Z,16.12
2023-05-10T19:04:38.123Z,16.05
2023-05-10T19:07:13.625Z,15.99
2023-05-10T19:09:48.445Z,15.91
2023-05-10T19:12:25.565Z,15.85
2023-05-10T19:14:59.904Z,15.82
2023-05-10T19:17:37.042Z,15.80
2023-05-10T19:20:12.856Z,15.78
2023-05-10T19:23:08.652Z,15.74
2023-05-10T19:25:42.565Z,15.70
2023-05-10T19:28:14.719Z,15.66
2023-05-10T19:30:47.571Z,15.64
2023-05-10T19:33:23.477Z,15.61
2023-05-10T19:35:57.059Z,15.57
2023-05-10T19:38:35.625Z,15.53
2023-05-10T19:41:10.569Z,15.49
2023-05-10T19:43:48.520Z,15.46
2023-05-10T19:46:24.709Z,15.44
2023-05-10T19:48:58.090Z,15.41
2023-05-10T19:51:33.236Z,15.40
2023-05-10T19:54:08.025Z,15.38
2023-05-10T19:56:45.832Z,15.37
2023-05-10T19:59:19.726Z,15.36
2023-05-10T20:01:53.722Z,15.35
2023-05-10T20:04:27.229Z,15.34
2023-05-10T20:07:00.380Z,15.32
2023-05-10T20:09:37.264Z,15.31
2023-05-10T20:12:12.605Z,15.29
2023-05-10T20:14:45.619Z,15.28
2023-05-10T20:17:18.504Z,15.28
2023-05-10T20:19:50.930Z,15.26
2023-05-10T20:22:22.939Z,15.25
2023-05-10T20:24:55.817Z,15.23
2023-05-10T20:27:28.656Z,15.21
2023-05-10T20:30:00.501Z,15.18
2023-05-10T20:32:32.531Z,15.16
2023-05-10T20:35:02.898Z,15.13
2023-05-10T20:37:36.075Z,15.09
2023-05-10T20:40:11.050Z,15.06
2023-05-10T20:42:43.171Z,15.02
2023-05-10T20:45:15.374Z,14.99
2023-05-10T20:47:45.804Z,14.97
2023-05-10T20:50:18.097Z,14.95
2023-05-10T20:52:52.405Z,14.94
2023-05-10T20:55:24.350Z,14.94
2023-05-10T20:57:54.780Z,14.95
2023-05-10T21:00:26.943Z,14.94
2023-05-10T21:02:58.864Z,14.93
2023-05-10T21:05:31.511Z,14.92
2023-05-10T21:08:03.576Z,14.92
2023-05-10T21:10:35.466Z,14.92
2023-05-10T21:13:07.374Z,14.91
2023-05-10T21:15:37.932Z,14.90
2023-05-10T21:18:09.851Z,14.85
2023-05-10T21:20:40.288Z,14.82
2023-05-10T21:23:12.274Z,14.77
2023-05-10T21:25:42.785Z,14.73
2023-05-10T21:28:14.710Z,14.68
2023-05-10T21:30:46.550Z,14.66
2023-05-10T21:33:18.405Z,14.64
2023-05-10T21:35:51.280Z,14.61
2023-05-10T21:38:23.127Z,14.60
2023-05-10T21:40:58.276Z,14.58
2023-05-10T21:43:30.349Z,14.54
2023-05-10T21:46:02.506Z,14.50
2023-05-10T21:48:34.456Z,14.47
2023-05-10T21:51:06.608Z,14.42
2023-05-10T21:53:40.550Z,14.37
2023-05-10T21:56:12.376Z,14.34
2023-05-10T21:58:44.394Z,14.32
2023-05-10T22:01:18.060Z,14.28
2023-05-10T22:03:50.059Z,14.23
2023-05-10T22:06:20.655Z,14.18
2023-05-10T22:08:52.776Z,14.11
2023-05-10T22:11:24.559Z,14.04
2023-05-10T22:13:56.601Z,13.96
2023-05-10T22:16:29.642Z,13.89
2023-05-10T22:19:01.669Z,13.80
2023-05-10T22:21:32.181Z,13.72
2023-05-10T22:24:05.116Z,13.65
2023-05-10T22:26:36.982Z,13.58
2023-05-10T22:29:08.976Z,13.54
2023-05-10T22:31:41.325Z,13.51
2023-05-10T22:34:13.338Z,13.47
2023-05-10T22:36:45.377Z,13.44
2023-05-10T22:39:17.243Z,13.39
2023-05-10T22:41:48.985Z,13.35
2023-05-10T22:44:20.933Z,13.30
2023-05-10T22:46:53.002Z,13.22
2023-05-10T22:49:23.710Z,13.15
2023-05-10T22:51:55.552Z,13.06
2023-05-10T22:54:27.478Z,12.97
2023-05-10T22:56:59.835Z,12.86
2023-05-10T22:59:31.769Z,12.80
2023-05-10T23:02:03.710Z,12.74
2023-05-10T23:04:36.021Z,12.69
2023-05-10T23:07:06.540Z,12.65
2023-05-10T23:09:38.614Z,12.60
2023-05-10T23:12:09.164Z,12.55
2023-05-10T23:14:41.646Z,12.49
2023-05-10T23:17:13.553Z,12.45
2023-05-10T23:19:45.432Z,12.44
2023-05-10T23:22:17.585Z,12.41
2023-05-10T23:24:49.551Z,12.35
2023-05-10T23:27:21.446Z,12.29
2023-05-10T23:29:55.775Z,12.24
2023-05-10T23:32:27.948Z,12.19
2023-05-10T23:35:00.140Z,12.17
2023-05-10T23:37:32.069Z,12.15
2023-05-10T23:40:04.513Z,12.12
2023-05-10T23:42:37.231Z,12.11
2023-05-10T23:45:10.843Z,12.09
2023-05-10T23:47:42.851Z,12.07
2023-05-10T23:50:15.025Z,12.03
2023-05-10T23:52:47.132Z,12.02
2023-05-10T23:55:19.171Z,11.98
2023-05-10T23:57:49.601Z,11.95
